Time;durP1;ratioP1;P1;durP2;ratioP2;P2;SDS_P1;SDS_P2;PMS_P1;PMS_P2;Temp;Humidity;BMP_temperature;BMP_pressure;BME280_temperature;BME280_humidity;BME280_pressure;Samples;Min_cycle;Max_cycle;Signal;HPM_P1;HPM_P2
2022/09/15 00:04:02;;;;;;;19.95;2.15;;;;;;;-147.53;100.00;57128.34;10326814;28;20119;-77
2022/09/15 00:09:05;;;;;;;8.38;1.90;;;;;;;-147.53;100.00;57128.34;10321786;28;20045;-77
2022/09/15 00:14:07;;;;;;;6.65;1.50;;;;;;;-147.53;100.00;57128.34;10326927;28;20038;-77
2022/09/15 00:19:10;;;;;;;4.63;1.58;;;;;;;-147.53;100.00;57128.34;10311149;28;20085;-77
2022/09/15 00:24:13;;;;;;;6.53;1.83;;;;;;;-147.53;100.00;57128.34;10328546;28;20128;-77
2022/09/15 00:29:14;;;;;;;9.38;1.85;;;;;;;-147.53;100.00;57128.34;10321034;28;20054;-77
2022/09/15 00:34:16;;;;;;;5.03;1.50;;;;;;;-147.53;100.00;57128.34;10320034;28;20390;-77
2022/09/15 00:39:18;;;;;;;8.30;1.92;;;;;;;-147.53;100.00;57128.34;10322690;28;20042;-77
2022/09/15 00:44:22;;;;;;;7.47;1.85;;;;;;;-147.53;100.00;57128.34;10329313;28;20095;-76
2022/09/15 00:49:28;;;;;;;5.18;1.90;;;;;;;-147.53;100.00;57128.34;10316873;28;20053;-77
2022/09/15 00:54:38;;;;;;;4.18;1.77;;;;;;;-147.53;100.00;57128.34;10324985;28;20692;-77
2022/09/15 00:59:41;;;;;;;8.48;2.30;;;;;;;-147.53;100.00;57128.34;10312204;28;20054;-77
2022/09/15 01:04:44;;;;;;;8.80;3.17;;;;;;;-147.53;100.00;57128.34;10318520;28;20712;-77
2022/09/15 01:09:55;;;;;;;10.75;2.00;;;;;;;-147.53;100.00;57128.34;10312638;28;20051;-77
2022/09/15 01:15:01;;;;;;;6.65;2.20;;;;;;;-147.53;100.00;57128.34;10309514;28;20042;-77
2022/09/15 01:20:45;;;;;;;7.85;2.63;;;;;;;-147.53;100.00;57128.34;10302928;28;20053;-74
2022/09/15 01:25:47;;;;;;;5.60;1.80;;;;;;;-147.53;100.00;57128.34;10308622;28;20121;-77
2022/09/15 01:31:12;;;;;;;8.90;2.85;;;;;;;-147.53;100.00;57128.34;10309031;28;20060;-77
2022/09/15 01:36:34;;;;;;;5.90;1.98;;;;;;;-147.53;100.00;57128.34;10315655;28;20112;-77
2022/09/15 01:41:41;;;;;;;6.47;2.25;;;;;;;-147.53;100.00;57128.34;10301391;28;20054;-76
2022/09/15 01:46:47;;;;;;;5.88;2.28;;;;;;;-147.53;100.00;57128.34;10326204;28;20050;-76
2022/09/15 01:51:52;;;;;;;8.52;2.05;;;;;;;-147.53;100.00;57128.34;10281132;28;20046;-76
2022/09/15 01:56:55;;;;;;;8.30;2.50;;;;;;;-147.53;100.00;57128.34;10312203;28;20117;-76
2022/09/15 02:02:11;;;;;;;11.73;2.50;;;;;;;-147.53;100.00;57128.34;10302007;28;20050;-76
2022/09/15 02:07:19;;;;;;;5.80;1.98;;;;;;;-147.53;100.00;57128.34;10302256;28;20068;-76
2022/09/15 02:12:41;;;;;;;5.32;2.15;;;;;;;-147.53;100.00;57128.34;10326380;28;20279;-76
2022/09/15 02:17:53;;;;;;;4.13;2.03;;;;;;;-147.53;100.00;57128.34;10302018;28;20185;-77
2022/09/15 02:23:00;;;;;;;5.63;1.92;;;;;;;-147.53;100.00;57128.34;10306933;28;20810;-77
2022/09/15 02:28:06;;;;;;;5.85;2.20;;;;;;;-147.53;100.00;57128.34;10303758;28;20038;-77
2022/09/15 02:33:18;;;;;;;10.95;2.55;;;;;;;-147.53;100.00;57128.34;10321797;28;20041;-77
2022/09/15 02:38:20;;;;;;;6.90;2.45;;;;;;;-147.53;100.00;57128.34;10306150;28;22090;-77
2022/09/15 02:43:22;;;;;;;11.75;2.80;;;;;;;-147.53;100.00;57128.34;10325501;28;20053;-77
2022/09/15 02:48:24;;;;;;;5.38;2.63;;;;;;;-147.53;100.00;57128.34;10333874;28;20402;-77
2022/09/15 02:53:26;;;;;;;5.13;2.22;;;;;;;-147.53;100.00;57128.34;10336065;28;20044;-77
2022/09/15 02:58:28;;;;;;;7.65;2.80;;;;;;;-147.53;100.00;57128.34;10321587;28;20449;-77
2022/09/15 03:03:33;;;;;;;10.55;2.60;;;;;;;-147.53;100.00;57128.34;10316372;28;20132;-74
2022/09/15 03:08:35;;;;;;;8.27;2.53;;;;;;;-147.53;100.00;57128.34;10327525;28;20037;-74
2022/09/15 03:13:38;;;;;;;8.25;2.40;;;;;;;-147.53;100.00;57128.34;10331765;28;20073;-75
2022/09/15 03:18:40;;;;;;;7.95;2.13;;;;;;;-147.53;100.00;57128.34;10328759;28;20038;-74
2022/09/15 03:23:42;;;;;;;7.90;2.53;;;;;;;-147.53;100.00;57128.34;10325350;28;20136;-74
2022/09/15 03:28:43;;;;;;;8.00;2.40;;;;;;;-147.53;100.00;57128.34;10318479;28;20031;-74
2022/09/15 03:33:47;;;;;;;7.15;2.08;;;;;;;-147.53;100.00;57128.34;10311380;28;20060;-74
2022/09/15 03:38:50;;;;;;;8.07;2.40;;;;;;;-147.53;100.00;57128.34;10303236;28;20043;-74
2022/09/15 03:43:52;;;;;;;8.18;2.17;;;;;;;-147.53;100.00;57128.34;10322987;28;20383;-74
2022/09/15 03:48:54;;;;;;;7.20;2.25;;;;;;;-147.53;100.00;57128.34;10306986;28;20047;-74
2022/09/15 03:53:56;;;;;;;7.70;1.98;;;;;;;-147.53;100.00;57128.34;10315730;28;20053;-74
2022/09/15 03:59:00;;;;;;;6.35;2.03;;;;;;;-147.53;100.00;57128.34;10319897;28;20041;-73
2022/09/15 04:04:02;;;;;;;9.80;2.08;;;;;;;-147.53;100.00;57128.34;10317353;28;20054;-75
2022/09/15 04:09:03;;;;;;;10.25;2.10;;;;;;;-147.53;100.00;57128.34;10325211;28;20046;-75
2022/09/15 04:14:05;;;;;;;8.45;1.80;;;;;;;-147.53;100.00;57128.34;10325088;28;20536;-75
2022/09/15 04:19:08;;;;;;;6.35;1.52;;;;;;;-147.53;100.00;57128.34;10310742;28;20494;-75
2022/09/15 04:24:09;;;;;;;5.32;1.77;;;;;;;-147.53;100.00;57128.34;10319400;28;20069;-75
2022/09/15 04:29:14;;;;;;;7.63;2.05;;;;;;;-147.53;100.00;57128.34;10321546;28;20456;-75
2022/09/15 04:34:16;;;;;;;8.23;1.85;;;;;;;-147.53;100.00;57128.34;10324156;28;20472;-77
2022/09/15 04:39:19;;;;;;;10.07;2.17;;;;;;;-147.53;100.00;57128.34;10314534;28;20197;-78
2022/09/15 04:44:21;;;;;;;7.63;1.80;;;;;;;-147.53;100.00;57128.34;10339134;28;20042;-77
2022/09/15 04:49:23;;;;;;;6.60;1.52;;;;;;;-147.53;100.00;57128.34;10336539;28;20572;-77
2022/09/15 04:54:26;;;;;;;6.97;2.00;;;;;;;-147.53;100.00;57128.34;10337355;28;20069;-77
2022/09/15 04:59:28;;;;;;;4.13;1.42;;;;;;;-147.53;100.00;57128.34;10336220;28;20582;-77
2022/09/15 05:04:31;;;;;;;6.32;1.77;;;;;;;-147.53;100.00;57128.34;10319728;28;20070;-77
2022/09/15 05:09:33;;;;;;;9.48;2.20;;;;;;;-147.53;100.00;57128.34;10309306;28;20446;-77
2022/09/15 05:14:35;;;;;;;6.00;2.10;;;;;;;-147.53;100.00;57128.34;10337754;28;20042;-77
2022/09/15 05:19:37;;;;;;;6.72;2.05;;;;;;;-147.53;100.00;57128.34;10324433;28;20042;-78
2022/09/15 05:24:39;;;;;;;9.32;1.80;;;;;;;-147.53;100.00;57128.34;10315868;28;20058;-78
2022/09/15 05:29:41;;;;;;;11.75;2.13;;;;;;;-147.53;100.00;57128.34;10341797;28;20039;-78
2022/09/15 05:34:43;;;;;;;7.95;2.17;;;;;;;-147.53;100.00;57128.34;10341780;28;20052;-79
2022/09/15 05:39:45;;;;;;;5.30;1.60;;;;;;;-147.53;100.00;57128.34;10326717;28;20073;-77
2022/09/15 05:44:46;;;;;;;5.82;2.00;;;;;;;-147.53;100.00;57128.34;10305315;28;20042;-77
2022/09/15 05:49:48;;;;;;;11.77;2.03;;;;;;;-147.53;100.00;57128.34;10311278;28;20043;-77
2022/09/15 05:54:50;;;;;;;8.82;1.73;;;;;;;-147.53;100.00;57128.34;10324823;28;20052;-77
2022/09/15 05:59:57;;;;;;;5.40;1.63;;;;;;;-147.53;100.00;57128.34;10315771;28;20050;-77
2022/09/15 06:04:59;;;;;;;5.65;1.70;;;;;;;-147.53;100.00;57128.34;10315011;28;20056;-77
2022/09/15 06:10:02;;;;;;;8.90;1.70;;;;;;;-147.53;100.00;57128.34;10324310;28;20046;-76
2022/09/15 06:15:04;;;;;;;7.90;2.20;;;;;;;-147.53;100.00;57128.34;10306626;28;20103;-76
2022/09/15 06:20:08;;;;;;;5.63;1.83;;;;;;;-147.53;100.00;57128.34;10321870;28;20054;-76
2022/09/15 06:25:12;;;;;;;3.65;1.40;;;;;;;-147.53;100.00;57128.34;10305958;28;20046;-77
2022/09/15 06:30:14;;;;;;;7.07;1.77;;;;;;;-147.53;100.00;57128.34;10317850;28;20676;-76
2022/09/15 06:35:16;;;;;;;6.47;1.45;;;;;;;-147.53;100.00;57128.34;10321488;28;20045;-77
2022/09/15 06:40:18;;;;;;;5.55;1.27;;;;;;;-147.53;100.00;57128.34;10319980;28;20042;-77
2022/09/15 06:45:20;;;;;;;8.80;1.55;;;;;;;-147.53;100.00;57128.34;10318164;28;20397;-77
2022/09/15 06:50:22;;;;;;;5.65;1.20;;;;;;;-147.53;100.00;57128.34;10322670;28;20046;-77
2022/09/15 06:55:24;;;;;;;7.43;1.38;;;;;;;-147.53;100.00;57128.34;10324272;28;20049;-77
2022/09/15 07:00:26;;;;;;;9.15;1.27;;;;;;;-147.53;100.00;57128.34;10326286;28;20530;-77
2022/09/15 07:05:28;;;;;;;9.32;1.42;;;;;;;-147.53;100.00;57128.34;10305140;28;20128;-77
2022/09/15 07:10:30;;;;;;;5.55;1.20;;;;;;;-147.53;100.00;57128.34;10287794;28;20046;-76
2022/09/15 07:15:32;;;;;;;3.53;0.98;;;;;;;-147.53;100.00;57128.34;10314541;28;20673;-77
2022/09/15 07:20:37;;;;;;;5.78;1.00;;;;;;;-147.53;100.00;57128.34;10311662;28;20058;-77
2022/09/15 07:25:43;;;;;;;7.63;1.20;;;;;;;-147.53;100.00;57128.34;10324219;28;20062;-82
2022/09/15 07:30:49;;;;;;;6.05;1.00;;;;;;;-147.53;100.00;57128.34;10335474;28;20049;-76
2022/09/15 07:35:51;;;;;;;3.67;1.00;;;;;;;-147.53;100.00;57128.34;10325862;28;20765;-78
2022/09/15 07:40:53;;;;;;;9.40;1.65;;;;;;;-147.53;100.00;57128.34;10338487;28;20046;-78
2022/09/15 07:45:56;;;;;;;8.02;1.17;;;;;;;-147.53;100.00;57128.34;10332121;28;20050;-79
2022/09/15 07:50:58;;;;;;;11.57;1.23;;;;;;;-147.53;100.00;57128.34;10322930;28;20457;-76
2022/09/15 07:56:00;;;;;;;7.60;1.30;;;;;;;-147.53;100.00;57128.34;10327563;28;20043;-76
2022/09/15 08:01:05;;;;;;;4.45;0.75;;;;;;;-147.53;100.00;57128.34;10331533;28;20042;-76
2022/09/15 08:06:09;;;;;;;3.35;0.90;;;;;;;-147.53;100.00;57128.34;10310630;28;20061;-76
2022/09/15 08:11:17;;;;;;;5.13;0.93;;;;;;;-147.53;100.00;57128.34;10311106;28;20528;-77
2022/09/15 08:16:21;;;;;;;6.72;1.17;;;;;;;-147.53;100.00;57128.34;10329002;28;20038;-76
2022/09/15 08:21:23;;;;;;;9.52;1.25;;;;;;;-147.53;100.00;57128.34;10313465;28;20053;-76
2022/09/15 08:26:26;;;;;;;7.63;0.88;;;;;;;-147.53;100.00;57128.34;10320001;28;20583;-76
2022/09/15 08:31:29;;;;;;;6.60;0.95;;;;;;;-147.53;100.00;57128.34;10318464;28;20050;-77
2022/09/15 08:36:32;;;;;;;11.95;1.00;;;;;;;-147.53;100.00;57128.34;10327266;28;20076;-79
2022/09/15 08:41:52;;;;;;;13.60;0.90;;;;;;;-147.53;100.00;57128.34;10288311;28;20054;-76
2022/09/15 08:47:18;;;;;;;5.53;0.80;;;;;;;-147.53;100.00;57128.34;10306413;28;20166;-77
2022/09/15 08:52:45;;;;;;;7.57;1.33;;;;;;;-147.53;100.00;57128.34;10327180;28;20051;-74
2022/09/15 08:57:47;;;;;;;6.68;1.10;;;;;;;-147.53;100.00;57128.34;10299979;28;20038;-75
2022/09/15 09:03:11;;;;;;;8.38;0.73;;;;;;;-147.53;100.00;57128.34;10315109;28;20050;-77
2022/09/15 09:08:36;;;;;;;3.92;0.68;;;;;;;-147.53;100.00;57128.34;10309325;28;20046;-77
2022/09/15 09:13:49;;;;;;;5.20;0.65;;;;;;;-147.53;100.00;57128.34;10295745;28;20054;-78
2022/09/15 09:19:21;;;;;;;6.35;1.00;;;;;;;-147.53;100.00;57128.34;10312790;28;20048;-78
2022/09/15 09:24:31;;;;;;;3.47;1.13;;;;;;;-147.53;100.00;57128.34;10313142;28;20046;-77
2022/09/15 09:29:38;;;;;;;2.72;0.70;;;;;;;-147.53;100.00;57128.34;10311718;28;20587;-78
2022/09/15 09:34:53;;;;;;;1.50;0.38;;;;;;;-147.53;100.00;57128.34;10305612;28;20775;-81
2022/09/15 09:39:55;;;;;;;2.72;0.55;;;;;;;-147.53;100.00;57128.34;10315524;28;20046;-78
2022/09/15 09:44:56;;;;;;;5.03;0.50;;;;;;;-147.53;100.00;57128.34;10315245;28;20057;-78
2022/09/15 09:49:58;;;;;;;2.90;0.57;;;;;;;-147.53;100.00;57128.34;10296979;28;20049;-77
2022/09/15 09:55:01;;;;;;;5.43;0.73;;;;;;;-147.53;100.00;57128.34;10314272;28;20061;-77
2022/09/15 10:00:03;;;;;;;5.15;0.70;;;;;;;-147.53;100.00;57128.34;10319268;28;20521;-77
2022/09/15 10:05:07;;;;;;;3.47;0.90;;;;;;;-147.53;100.00;57128.34;10288954;28;20165;-77
2022/09/15 10:10:20;;;;;;;3.60;0.82;;;;;;;-147.53;100.00;57128.34;10280963;28;20041;-78
2022/09/15 10:15:24;;;;;;;3.70;0.90;;;;;;;-147.53;100.00;57128.34;10300122;28;20049;-77
2022/09/15 10:20:31;;;;;;;5.95;0.85;;;;;;;-147.53;100.00;57128.34;10311073;28;20691;-76
2022/09/15 10:25:36;;;;;;;4.07;0.90;;;;;;;-147.53;100.00;57128.34;10308931;28;20038;-76
2022/09/15 10:31:04;;;;;;;5.68;1.52;;;;;;;-147.53;100.00;57128.34;10302384;28;20054;-77
2022/09/15 10:36:10;;;;;;;2.95;0.60;;;;;;;-147.53;100.00;57128.34;10312818;28;20057;-76
2022/09/15 10:41:33;;;;;;;5.85;0.70;;;;;;;-147.53;100.00;57128.34;10317504;28;20465;-77
2022/09/15 10:46:55;;;;;;;4.10;0.65;;;;;;;-147.53;100.00;57128.34;10314808;28;20038;-76
2022/09/15 10:52:31;;;;;;;3.88;0.40;;;;;;;-147.53;100.00;57128.34;10309843;28;20501;-77
2022/09/15 10:57:50;;;;;;;4.43;0.70;;;;;;;-147.53;100.00;57128.34;10308504;28;20046;-77
2022/09/15 11:03:21;;;;;;;5.88;0.70;;;;;;;-147.53;100.00;57128.34;10307996;28;20050;-77
2022/09/15 11:08:44;;;;;;;2.47;0.70;;;;;;;-147.53;100.00;57128.34;10308059;28;20104;-76
2022/09/15 11:13:55;;;;;;;1.80;0.60;;;;;;;-147.53;100.00;57128.34;10303947;28;20049;-75
2022/09/15 11:18:57;;;;;;;2.60;0.70;;;;;;;-147.53;100.00;57128.34;10310315;28;20046;-77
2022/09/15 11:24:16;;;;;;;1.67;0.35;;;;;;;-147.53;100.00;57128.34;10312895;28;22071;-76
2022/09/15 11:29:41;;;;;;;5.35;0.63;;;;;;;-147.53;100.00;57128.34;10311779;28;20054;-76
2022/09/15 11:34:53;;;;;;;3.92;0.45;;;;;;;-147.53;100.00;57128.34;10290920;28;20050;-74
2022/09/15 11:40:12;;;;;;;4.10;0.75;;;;;;;-147.53;100.00;57128.34;10314239;28;20538;-73
2022/09/15 11:45:44;;;;;;;3.10;0.90;;;;;;;-147.53;100.00;57128.34;10323544;28;20046;-76
2022/09/15 11:50:50;;;;;;;2.33;0.50;;;;;;;-147.53;100.00;57128.34;10321476;28;20058;-75
2022/09/15 11:56:29;;;;;;;3.13;0.60;;;;;;;-147.53;100.00;57128.34;10316125;28;20049;-74
2022/09/15 12:02:08;;;;;;;4.15;0.70;;;;;;;-147.53;100.00;57128.34;10323420;28;20527;-73
2022/09/15 12:07:18;;;;;;;3.35;0.50;;;;;;;-147.53;100.00;57128.34;10315848;28;20044;-72
2022/09/15 12:12:21;;;;;;;2.67;0.60;;;;;;;-147.53;100.00;57128.34;10319378;28;20043;-73
2022/09/15 12:17:39;;;;;;;5.30;0.55;;;;;;;-147.53;100.00;57128.34;10325515;28;20049;-75
2022/09/15 12:22:42;;;;;;;3.00;0.60;;;;;;;-147.53;100.00;57128.34;10316847;28;20053;-73
2022/09/15 12:28:30;;;;;;;6.05;0.90;;;;;;;-147.53;100.00;57128.34;10303799;28;20050;-74
2022/09/15 12:33:53;;;;;;;3.15;0.70;;;;;;;-147.53;100.00;57128.34;10305812;28;20235;-73
2022/09/15 12:38:55;;;;;;;9.27;1.08;;;;;;;-147.53;100.00;57128.34;10331204;28;20149;-73
2022/09/15 12:44:13;;;;;;;6.38;1.20;;;;;;;-147.53;100.00;57128.34;10319180;28;20043;-73
2022/09/15 12:49:17;;;;;;;4.88;0.88;;;;;;;-147.53;100.00;57128.34;10318360;28;20050;-73
2022/09/15 12:54:27;;;;;;;4.75;0.70;;;;;;;-147.53;100.00;57128.34;10318954;28;20054;-74
2022/09/15 12:59:29;;;;;;;;;;;;;;;-147.53;100.00;57128.34;10311882;28;20559;-75
2022/09/15 13:04:53;;;;;;;3.03;0.70;;;;;;;-147.53;100.00;57128.34;10321501;28;19944;-75
2022/09/15 13:10:07;;;;;;;4.57;0.75;;;;;;;-147.53;100.00;57128.34;10328054;28;20050;-75
2022/09/15 13:15:14;;;;;;;6.78;1.13;;;;;;;-147.53;100.00;57128.34;10310180;28;20057;-75
2022/09/15 13:20:24;;;;;;;5.57;0.90;;;;;;;-147.53;100.00;57128.34;10305271;28;20050;-74
2022/09/15 13:25:29;;;;;;;5.40;0.88;;;;;;;-147.53;100.00;57128.34;10320558;28;20046;-74
2022/09/15 13:31:04;;;;;;;6.22;1.10;;;;;;;-147.53;100.00;57128.34;10317682;28;20409;-75
2022/09/15 13:36:14;;;;;;;3.30;0.82;;;;;;;-147.53;100.00;57128.34;10306904;28;20065;-74
2022/09/15 13:41:35;;;;;;;3.35;1.00;;;;;;;-147.53;100.00;57128.34;10304376;28;20046;-74
2022/09/15 13:47:15;;;;;;;6.97;1.08;;;;;;;-147.53;100.00;57128.34;10308936;28;20046;-74
2022/09/15 13:52:17;;;;;;;;;;;;;;;-147.53;100.00;57128.34;10280778;28;20065;-73
2022/09/15 13:57:18;;;;;;;4.97;1.00;;;;;;;-147.53;100.00;57128.34;10311227;28;19936;-75
2022/09/15 14:02:43;;;;;;;6.78;1.30;;;;;;;-147.53;100.00;57128.34;10313972;28;20082;-76
2022/09/15 14:08:14;;;;;;;4.75;0.90;;;;;;;-147.53;100.00;57128.34;10323344;28;20042;-72
2022/09/15 14:13:18;;;;;;;3.73;0.90;;;;;;;-147.53;100.00;57128.34;10313384;28;20054;-72
2022/09/15 14:18:20;;;;;;;4.82;0.90;;;;;;;-147.53;100.00;57128.34;10315330;28;20548;-72
2022/09/15 14:23:21;;;;;;;5.80;1.15;;;;;;;-147.53;100.00;57128.34;10314394;28;20092;-72
2022/09/15 14:28:33;;;;;;;2.10;0.70;;;;;;;-147.53;100.00;57128.34;10304484;28;20073;-71
2022/09/15 14:33:38;;;;;;;5.93;0.82;;;;;;;-147.53;100.00;57128.34;10310173;28;20112;-72
2022/09/15 14:38:40;;;;;;;4.47;1.55;;;;;;;-147.53;100.00;57128.34;10309734;28;20116;-72
2022/09/15 14:43:41;;;;;;;2.53;0.80;;;;;;;-147.53;100.00;57128.34;10328838;28;20041;-72
2022/09/15 14:48:43;;;;;;;2.63;0.70;;;;;;;-147.53;100.00;57128.34;10304672;28;20038;-71
2022/09/15 14:53:49;;;;;;;2.88;0.82;;;;;;;-147.53;100.00;57128.34;10331963;28;20579;-72
2022/09/15 14:59:03;;;;;;;6.47;0.93;;;;;;;-147.53;100.00;57128.34;10318864;28;20379;-72
2022/09/15 15:04:10;;;;;;;7.95;0.90;;;;;;;-147.53;100.00;57128.34;10315394;28;20046;-73
2022/09/15 15:09:20;;;;;;;4.13;1.35;;;;;;;-147.53;100.00;57128.34;10315391;28;20093;-72
2022/09/15 15:14:22;;;;;;;5.45;0.75;;;;;;;-147.53;100.00;57128.34;10323903;28;20088;-72
2022/09/15 15:19:37;;;;;;;5.28;1.00;;;;;;;-147.53;100.00;57128.34;10329423;28;20045;-72
2022/09/15 15:24:42;;;;;;;2.25;0.60;;;;;;;-147.53;100.00;57128.34;10319208;28;20502;-72
2022/09/15 15:29:46;;;;;;;5.55;1.00;;;;;;;-147.53;100.00;57128.34;10327527;28;20452;-73
2022/09/15 15:35:00;;;;;;;3.20;0.80;;;;;;;-147.53;100.00;57128.34;10314506;28;20058;-72
2022/09/15 15:40:06;;;;;;;7.10;0.98;;;;;;;-147.53;100.00;57128.34;10328740;28;20540;-72
2022/09/15 15:45:08;;;;;;;6.88;1.40;;;;;;;-147.53;100.00;57128.34;10327304;28;20579;-72
2022/09/15 15:50:19;;;;;;;6.07;1.00;;;;;;;-147.53;100.00;57128.34;10328012;28;20473;-73
2022/09/15 15:55:23;;;;;;;4.55;0.98;;;;;;;-147.53;100.00;57128.34;10323565;28;20050;-72
2022/09/15 16:00:31;;;;;;;3.78;0.70;;;;;;;-147.53;100.00;57128.34;10326704;28;20418;-73
2022/09/15 16:05:33;;;;;;;8.73;1.25;;;;;;;-147.53;100.00;57128.34;10319239;28;20409;-71
2022/09/15 16:10:42;;;;;;;7.53;1.45;;;;;;;-147.53;100.00;57128.34;10315631;28;20054;-72
2022/09/15 16:15:44;;;;;;;4.78;1.25;;;;;;;-147.53;100.00;57128.34;10323175;28;20053;-73
2022/09/15 16:20:46;;;;;;;8.32;1.08;;;;;;;-147.53;100.00;57128.34;10322222;28;20033;-72
2022/09/15 16:26:00;;;;;;;7.32;1.10;;;;;;;-147.53;100.00;57128.34;10323215;28;20052;-72
2022/09/15 16:31:01;;;;;;;7.60;1.00;;;;;;;-147.53;100.00;57128.34;10318132;28;20101;-72
2022/09/15 16:36:06;;;;;;;8.32;0.93;;;;;;;-147.53;100.00;57128.34;10297773;28;20045;-72
2022/09/15 16:41:14;;;;;;;6.00;1.00;;;;;;;-147.53;100.00;57128.34;10321126;28;20084;-72
2022/09/15 16:46:16;;;;;;;5.90;0.90;;;;;;;-147.53;100.00;57128.34;10312284;28;20042;-72
2022/09/15 16:51:23;;;;;;;4.07;0.90;;;;;;;-147.53;100.00;57128.34;10325832;28;20528;-71
2022/09/15 16:56:31;;;;;;;6.22;1.00;;;;;;;-147.53;100.00;57128.34;10313781;28;20061;-72
2022/09/15 17:01:32;;;;;;;3.42;0.70;;;;;;;-147.53;100.00;57128.34;10301117;28;20034;-74
2022/09/15 17:06:34;;;;;;;4.38;1.23;;;;;;;-147.53;100.00;57128.34;10280363;28;20065;-73
2022/09/15 17:11:35;;;;;;;1.80;0.80;;;;;;;-147.53;100.00;57128.34;10298550;28;20042;-73
2022/09/15 17:16:37;;;;;;;4.28;0.90;;;;;;;-147.53;100.00;57128.34;10306322;28;20465;-73
2022/09/15 17:21:46;;;;;;;4.40;1.02;;;;;;;13.46;76.56;100483.00;10562635;27;20630;-71
2022/09/15 17:26:47;;;;;;;8.75;1.00;;;;;;;13.31;77.44;100482.06;10482430;27;20072;-71
2022/09/15 17:31:49;;;;;;;5.68;1.20;;;;;;;13.22;77.93;100474.19;10408453;28;20037;-72
2022/09/15 17:36:50;;;;;;;2.45;0.98;;;;;;;13.00;78.62;100487.28;10426472;28;20816;-71
2022/09/15 17:41:52;;;;;;;2.13;0.85;;;;;;;12.90;78.97;100496.03;10414460;28;20045;-71
2022/09/15 17:46:54;;;;;;;6.53;1.63;;;;;;;12.75;79.26;100488.97;10414618;28;20128;-71
2022/09/15 17:51:55;;;;;;;5.45;1.60;;;;;;;12.61;79.83;100494.19;10419724;28;20041;-71
2022/09/15 17:56:57;;;;;;;6.70;1.70;;;;;;;12.51;80.13;100493.25;10417683;28;20049;-71
2022/09/15 18:01:58;;;;;;;6.13;1.73;;;;;;;12.47;80.53;100496.72;10416078;28;20657;-71
2022/09/15 18:07:00;;;;;;;6.45;1.85;;;;;;;12.37;80.69;100501.06;10419825;28;20110;-73
2022/09/15 18:12:02;;;;;;;6.43;1.90;;;;;;;12.31;80.95;100492.25;10407924;28;20045;-72
2022/09/15 18:17:03;;;;;;;7.15;1.52;;;;;;;12.32;81.33;100486.16;10399102;28;20065;-71
2022/09/15 18:22:05;;;;;;;3.63;1.60;;;;;;;12.33;81.62;100487.91;10413279;28;20050;-71
2022/09/15 18:27:07;;;;;;;5.57;2.00;;;;;;;12.34;82.35;100493.19;10422728;28;20045;-72
2022/09/15 18:32:08;;;;;;;8.45;2.50;;;;;;;12.29;83.03;100491.38;10395865;28;20041;-72
2022/09/15 18:37:10;;;;;;;8.65;2.78;;;;;;;12.31;83.31;100494.88;10383523;28;20061;-72
2022/09/15 18:42:11;;;;;;;13.02;2.70;;;;;;;12.36;83.49;100501.94;10390433;28;20053;-72
2022/09/15 18:47:13;;;;;;;11.82;2.97;;;;;;;12.34;83.72;100503.69;10386300;28;20449;-72
2022/09/15 18:52:14;;;;;;;7.82;1.90;;;;;;;12.28;83.96;100503.66;10392486;28;20042;-73
2022/09/15 18:57:16;;;;;;;9.05;1.48;;;;;;;12.27;84.35;100503.63;10391161;28;20049;-73
2022/09/15 19:02:17;;;;;;;5.05;1.20;;;;;;;12.19;84.49;100507.09;10379456;28;20053;-72
2022/09/15 19:07:19;;;;;;;5.70;1.73;;;;;;;12.15;85.16;100497.44;10379657;28;20038;-72
2022/09/15 19:12:25;;;;;;;7.70;2.00;;;;;;;12.23;85.48;100492.22;10390366;28;20532;-73
2022/09/15 19:17:27;;;;;;;8.30;2.10;;;;;;;12.24;85.83;100503.63;10385754;28;20598;-73
2022/09/15 19:22:28;;;;;;;6.53;1.98;;;;;;;12.23;85.92;100491.34;10387909;28;20471;-73
2022/09/15 19:27:30;;;;;;;8.43;1.50;;;;;;;12.25;86.07;100500.09;10387650;28;20090;-72
2022/09/15 19:32:32;;;;;;;10.60;1.70;;;;;;;12.19;86.27;100491.34;10383883;28;20056;-74
2022/09/15 19:37:36;;;;;;;8.10;1.90;;;;;;;12.14;86.35;100493.03;10378729;28;20610;-73
2022/09/15 19:42:39;;;;;;;5.85;1.70;;;;;;;12.09;86.59;100489.53;10388015;28;20044;-74
2022/09/15 19:47:40;;;;;;;8.63;2.13;;;;;;;12.01;86.80;100504.38;10389980;28;20128;-74
2022/09/15 19:52:42;;;;;;;5.43;1.20;;;;;;;11.92;87.25;100505.13;10383650;28;20107;-73
2022/09/15 19:57:45;;;;;;;6.28;1.30;;;;;;;11.83;87.54;100495.44;10388642;28;20046;-72
2022/09/15 20:02:47;;;;;;;8.25;1.50;;;;;;;11.89;87.75;100501.59;10385443;28;20477;-73
2022/09/15 20:07:49;;;;;;;7.57;1.35;;;;;;;11.83;87.91;100512.94;10383330;28;20555;-74
2022/09/15 20:12:51;;;;;;;2.53;1.00;;;;;;;11.79;87.80;100513.78;10378127;28;20041;-72
2022/09/15 20:17:52;;;;;;;10.32;1.77;;;;;;;11.74;87.51;100519.00;10383047;28;20799;-73
2022/09/15 20:22:53;;;;;;;7.32;1.10;;;;;;;11.60;87.26;100524.09;10379487;28;20084;-72
2022/09/15 20:27:55;;;;;;;4.38;1.08;;;;;;;11.48;86.98;100516.13;10395092;28;20040;-73
2022/09/15 20:32:57;;;;;;;3.88;0.68;;;;;;;11.41;86.90;100523.09;10380468;28;20060;-73
2022/09/15 20:37:58;;;;;;;10.50;1.00;;;;;;;11.21;86.98;100516.75;10381859;28;20497;-72
2022/09/15 20:43:00;;;;;;;6.82;1.50;;;;;;;11.13;87.22;100527.16;10383529;28;20046;-73
2022/09/15 20:48:02;;;;;;;5.57;1.00;;;;;;;11.07;87.35;100527.09;10387965;28;20084;-73
2022/09/15 20:53:03;;;;;;;3.78;0.80;;;;;;;11.02;87.63;100523.53;10386300;28;20071;-74
2022/09/15 20:58:06;;;;;;;3.22;0.70;;;;;;;10.95;87.64;100523.47;10382034;28;20455;-73
2022/09/15 21:03:08;;;;;;;3.53;0.65;;;;;;;10.89;87.84;100535.63;10390741;28;20521;-73
2022/09/15 21:08:10;;;;;;;4.95;1.08;;;;;;;10.82;87.73;100537.28;10392948;28;20045;-73
2022/09/15 21:13:12;;;;;;;3.13;1.10;;;;;;;10.83;88.13;100540.78;10391648;28;20053;-73
2022/09/15 21:18:13;;;;;;;6.72;1.38;;;;;;;10.90;88.12;100538.25;10390557;28;20179;-72
2022/09/15 21:23:15;;;;;;;6.97;1.10;;;;;;;11.00;88.24;100535.75;10385741;28;20512;-72
2022/09/15 21:28:16;;;;;;;8.98;1.45;;;;;;;10.97;87.99;100539.19;10375450;28;20046;-72
2022/09/15 21:33:19;;;;;;;4.75;1.02;;;;;;;10.98;88.06;100540.09;10385423;28;20057;-73
2022/09/15 21:38:21;;;;;;;11.10;1.10;;;;;;;10.87;88.29;100527.75;10384328;28;20053;-72
2022/09/15 21:43:22;;;;;;;10.80;1.10;;;;;;;10.76;88.53;100534.59;10381023;28;20594;-73
2022/09/15 21:48:26;;;;;;;2.78;0.90;;;;;;;10.70;88.84;100538.00;10384954;28;20136;-74
2022/09/15 21:53:28;;;;;;;6.00;1.30;;;;;;;10.69;89.12;100538.88;10383531;28;20120;-73
2022/09/15 21:58:36;;;;;;;4.30;1.00;;;;;;;10.70;89.38;100537.13;10384783;28;20038;-82
2022/09/15 22:03:48;;;;;;;2.35;0.75;;;;;;;10.71;89.99;100537.16;10395248;28;20049;-76
2022/09/15 22:08:49;;;;;;;4.35;1.55;;;;;;;10.62;90.27;100542.28;10408307;28;20033;-76
2022/09/15 22:13:51;;;;;;;4.82;1.30;;;;;;;10.55;90.30;100543.94;10386320;28;20037;-74
2022/09/15 22:18:54;;;;;;;6.55;0.82;;;;;;;10.48;90.54;100549.06;10399521;28;20042;-76
2022/09/15 22:23:57;;;;;;;3.97;0.82;;;;;;;10.53;90.67;100550.88;10403857;28;20509;-73
2022/09/15 22:29:00;;;;;;;8.13;1.67;;;;;;;10.57;90.91;100549.19;10386094;28;20137;-75
2022/09/15 22:34:03;;;;;;;6.07;1.20;;;;;;;10.48;91.06;100538.59;10396494;28;20045;-76
2022/09/15 22:39:04;;;;;;;3.45;0.70;;;;;;;10.46;91.28;100533.31;10399498;28;20053;-76
2022/09/15 22:44:16;;;;;;;4.68;1.27;;;;;;;10.40;91.31;100539.38;10392218;28;20074;-75
2022/09/15 22:49:18;;;;;;;1.77;0.70;;;;;;;10.31;91.13;100540.94;10374112;28;20076;-75
2022/09/15 22:54:20;;;;;;;2.92;0.77;;;;;;;10.34;91.42;100544.50;10387855;28;20468;-75
2022/09/15 22:59:21;;;;;;;6.10;1.00;;;;;;;10.27;91.40;100533.06;10382407;28;20505;-77
2022/09/15 23:04:23;;;;;;;8.15;1.15;;;;;;;10.24;91.47;100529.53;10387328;28;20481;-76